Terminal Aerodrome Forecast
Issued by NWS

Home | Current Version | Previous Version | Text Only | Print | Product List | Glossary On
Versions: 1 2 3 4 5 6 7 8 9 10 11 12 13 14 15 16 17 18 19
000
FTUS41 KLWX 032331 AAB
TAFMTN
TAF AMD
KMTN 032331Z 0400/0424 17008KT P6SM SCT150
     FM040800 24005KT P6SM BKN080 BKN100
     FM041200 14006KT P6SM SCT100 BKN110
     FM041400 22005KT P6SM SCT100 BKN250
     FM042300 29007KT P6SM SCT070
      AMD NOT SKED 0402/0412=

USA.gov is the U.S. government's official web portal to all federal, state and local government web resources and services.